sensor_id;sensor_type;location;lat;lon;timestamp;temperature;humidity
4054;DHT22;2042;47.956;9.222;2022-07-01T00:01:07;15.80;33.50
4054;DHT22;2042;47.956;9.222;2022-07-01T00:03:33;15.90;34.20
4054;DHT22;2042;47.956;9.222;2022-07-01T00:05:59;15.90;34.30
4054;DHT22;2042;47.956;9.222;2022-07-01T00:08:25;15.90;35.00
4054;DHT22;2042;47.956;9.222;2022-07-01T00:10:51;15.90;35.50
4054;DHT22;2042;47.956;9.222;2022-07-01T00:13:16;16.00;35.60
4054;DHT22;2042;47.956;9.222;2022-07-01T00:15:42;16.00;36.10
4054;DHT22;2042;47.956;9.222;2022-07-01T00:18:08;16.10;36.00
4054;DHT22;2042;47.956;9.222;2022-07-01T00:20:34;16.10;35.60
4054;DHT22;2042;47.956;9.222;2022-07-01T00:22:59;16.10;35.90
4054;DHT22;2042;47.956;9.222;2022-07-01T00:25:25;16.20;36.20
4054;DHT22;2042;47.956;9.222;2022-07-01T00:27:51;16.20;36.20
4054;DHT22;2042;47.956;9.222;2022-07-01T00:30:16;16.30;36.00
4054;DHT22;2042;47.956;9.222;2022-07-01T00:32:42;16.20;35.30
4054;DHT22;2042;47.956;9.222;2022-07-01T00:35:08;16.20;34.90
4054;DHT22;2042;47.956;9.222;2022-07-01T00:37:35;16.20;35.20
4054;DHT22;2042;47.956;9.222;2022-07-01T00:40:00;16.20;35.10
4054;DHT22;2042;47.956;9.222;2022-07-01T00:42:26;16.20;34.80
4054;DHT22;2042;47.956;9.222;2022-07-01T00:44:52;16.20;34.80
4054;DHT22;2042;47.956;9.222;2022-07-01T00:47:17;16.20;35.30
4054;DHT22;2042;47.956;9.222;2022-07-01T00:49:43;16.20;36.10
4054;DHT22;2042;47.956;9.222;2022-07-01T00:52:09;16.20;36.20
4054;DHT22;2042;47.956;9.222;2022-07-01T00:54:37;16.30;36.60
4054;DHT22;2042;47.956;9.222;2022-07-01T00:57:10;16.30;35.30
4054;DHT22;2042;47.956;9.222;2022-07-01T00:59:38;16.10;29.80
4054;DHT22;2042;47.956;9.222;2022-07-01T01:02:05;15.90;27.40
4054;DHT22;2042;47.956;9.222;2022-07-01T01:04:31;15.60;26.20
4054;DHT22;2042;47.956;9.222;2022-07-01T01:06:58;15.50;26.20
4054;DHT22;2042;47.956;9.222;2022-07-01T01:09:25;15.30;25.80
4054;DHT22;2042;47.956;9.222;2022-07-01T01:11:51;15.20;26.50
4054;DHT22;2042;47.956;9.222;2022-07-01T01:14:17;15.20;27.70
4054;DHT22;2042;47.956;9.222;2022-07-01T01:16:42;15.10;28.20
4054;DHT22;2042;47.956;9.222;2022-07-01T01:19:08;15.00;27.10
4054;DHT22;2042;47.956;9.222;2022-07-01T01:21:34;15.00;27.40
4054;DHT22;2042;47.956;9.222;2022-07-01T01:24:00;14.90;26.50
4054;DHT22;2042;47.956;9.222;2022-07-01T01:26:26;14.70;26.40
4054;DHT22;2042;47.956;9.222;2022-07-01T01:28:52;14.60;26.60
4054;DHT22;2042;47.956;9.222;2022-07-01T01:31:31;14.60;27.70
4054;DHT22;2042;47.956;9.222;2022-07-01T01:33:58;14.60;28.50
4054;DHT22;2042;47.956;9.222;2022-07-01T01:36:24;14.60;28.90
4054;DHT22;2042;47.956;9.222;2022-07-01T01:38:49;14.60;28.30
4054;DHT22;2042;47.956;9.222;2022-07-01T01:41:15;14.50;28.30
4054;DHT22;2042;47.956;9.222;2022-07-01T01:43:40;14.50;29.10
4054;DHT22;2042;47.956;9.222;2022-07-01T01:46:06;14.60;29.50
4054;DHT22;2042;47.956;9.222;2022-07-01T01:48:32;14.60;29.60
4054;DHT22;2042;47.956;9.222;2022-07-01T01:50:58;14.60;29.00
4054;DHT22;2042;47.956;9.222;2022-07-01T01:53:24;14.50;27.10
4054;DHT22;2042;47.956;9.222;2022-07-01T01:55:50;14.40;26.90
4054;DHT22;2042;47.956;9.222;2022-07-01T01:58:16;14.30;28.20
4054;DHT22;2042;47.956;9.222;2022-07-01T02:00:41;14.40;29.30
4054;DHT22;2042;47.956;9.222;2022-07-01T02:03:07;14.40;29.90
4054;DHT22;2042;47.956;9.222;2022-07-01T02:05:33;14.40;29.80
4054;DHT22;2042;47.956;9.222;2022-07-01T02:08:01;14.50;29.80
4054;DHT22;2042;47.956;9.222;2022-07-01T02:10:27;14.50;29.70
4054;DHT22;2042;47.956;9.222;2022-07-01T02:12:53;14.50;29.80
4054;DHT22;2042;47.956;9.222;2022-07-01T02:15:18;14.50;29.90
4054;DHT22;2042;47.956;9.222;2022-07-01T02:17:44;14.60;30.10
4054;DHT22;2042;47.956;9.222;2022-07-01T02:20:10;14.50;29.80
4054;DHT22;2042;47.956;9.222;2022-07-01T02:22:40;14.60;29.60
4054;DHT22;2042;47.956;9.222;2022-07-01T02:25:06;14.50;29.10
4054;DHT22;2042;47.956;9.222;2022-07-01T02:27:32;14.50;28.60
4054;DHT22;2042;47.956;9.222;2022-07-01T02:29:58;14.40;28.20
4054;DHT22;2042;47.956;9.222;2022-07-01T02:32:23;14.40;28.20
4054;DHT22;2042;47.956;9.222;2022-07-01T02:34:49;14.30;28.50
4054;DHT22;2042;47.956;9.222;2022-07-01T02:37:16;14.30;28.50
4054;DHT22;2042;47.956;9.222;2022-07-01T02:39:42;14.20;28.20
4054;DHT22;2042;47.956;9.222;2022-07-01T02:42:08;14.10;26.80
4054;DHT22;2042;47.956;9.222;2022-07-01T02:44:49;14.10;26.90
4054;DHT22;2042;47.956;9.222;2022-07-01T02:47:14;14.00;27.40
4054;DHT22;2042;47.956;9.222;2022-07-01T02:49:40;14.00;29.00
4054;DHT22;2042;47.956;9.222;2022-07-01T02:52:06;14.00;29.40
4054;DHT22;2042;47.956;9.222;2022-07-01T02:54:31;14.00;29.70
4054;DHT22;2042;47.956;9.222;2022-07-01T02:56:57;14.00;29.20
4054;DHT22;2042;47.956;9.222;2022-07-01T02:59:23;14.00;29.00
4054;DHT22;2042;47.956;9.222;2022-07-01T03:01:48;14.00;28.80
4054;DHT22;2042;47.956;9.222;2022-07-01T03:04:14;13.90;29.00
4054;DHT22;2042;47.956;9.222;2022-07-01T03:06:40;14.00;29.60
4054;DHT22;2042;47.956;9.222;2022-07-01T03:09:06;14.00;30.00
4054;DHT22;2042;47.956;9.222;2022-07-01T03:11:32;14.00;30.10
4054;DHT22;2042;47.956;9.222;2022-07-01T03:13:58;14.10;30.20
4054;DHT22;2042;47.956;9.222;2022-07-01T03:16:23;14.10;30.30
4054;DHT22;2042;47.956;9.222;2022-07-01T03:18:49;14.10;30.30
4054;DHT22;2042;47.956;9.222;2022-07-01T03:21:15;14.10;30.00
4054;DHT22;2042;47.956;9.222;2022-07-01T03:23:40;14.10;29.30
4054;DHT22;2042;47.956;9.222;2022-07-01T03:26:06;14.10;28.90
4054;DHT22;2042;47.956;9.222;2022-07-01T03:28:32;14.10;29.00
4054;DHT22;2042;47.956;9.222;2022-07-01T03:31:00;14.10;29.00
4054;DHT22;2042;47.956;9.222;2022-07-01T03:33:26;14.10;29.10
4054;DHT22;2042;47.956;9.222;2022-07-01T03:35:51;14.00;28.70
4054;DHT22;2042;47.956;9.222;2022-07-01T03:38:17;14.00;28.60
4054;DHT22;2042;47.956;9.222;2022-07-01T03:40:43;14.00;28.50
4054;DHT22;2042;47.956;9.222;2022-07-01T03:43:08;14.00;28.90
4054;DHT22;2042;47.956;9.222;2022-07-01T03:45:34;14.00;29.40
4054;DHT22;2042;47.956;9.222;2022-07-01T03:48:00;14.00;30.50
4054;DHT22;2042;47.956;9.222;2022-07-01T03:50:28;14.00;30.20
4054;DHT22;2042;47.956;9.222;2022-07-01T03:52:54;14.10;30.50
4054;DHT22;2042;47.956;9.222;2022-07-01T03:55:39;14.10;30.20
4054;DHT22;2042;47.956;9.222;2022-07-01T03:58:05;14.10;29.80
4054;DHT22;2042;47.956;9.222;2022-07-01T04:00:35;14.00;28.70
4054;DHT22;2042;47.956;9.222;2022-07-01T04:03:01;14.00;28.00
4054;DHT22;2042;47.956;9.222;2022-07-01T04:05:27;13.90;27.60
4054;DHT22;2042;47.956;9.222;2022-07-01T04:07:53;13.80;26.60
4054;DHT22;2042;47.956;9.222;2022-07-01T04:10:19;13.70;26.80
4054;DHT22;2042;47.956;9.222;2022-07-01T04:12:44;13.60;27.20
4054;DHT22;2042;47.956;9.222;2022-07-01T04:15:11;13.60;27.10
4054;DHT22;2042;47.956;9.222;2022-07-01T04:17:36;13.50;27.40
4054;DHT22;2042;47.956;9.222;2022-07-01T04:20:02;13.40;27.60
4054;DHT22;2042;47.956;9.222;2022-07-01T04:22:29;13.40;28.30
4054;DHT22;2042;47.956;9.222;2022-07-01T04:25:04;13.40;28.90
4054;DHT22;2042;47.956;9.222;2022-07-01T04:27:33;13.40;29.10
4054;DHT22;2042;47.956;9.222;2022-07-01T04:29:59;13.30;28.90
4054;DHT22;2042;47.956;9.222;2022-07-01T04:32:25;13.30;29.30
4054;DHT22;2042;47.956;9.222;2022-07-01T04:34:50;13.30;29.60
4054;DHT22;2042;47.956;9.222;2022-07-01T04:37:16;13.20;28.60
4054;DHT22;2042;47.956;9.222;2022-07-01T04:39:42;13.20;29.10
4054;DHT22;2042;47.956;9.222;2022-07-01T04:42:08;13.20;29.20
4054;DHT22;2042;47.956;9.222;2022-07-01T04:44:35;13.10;28.90
4054;DHT22;2042;47.956;9.222;2022-07-01T04:47:02;13.10;28.60
4054;DHT22;2042;47.956;9.222;2022-07-01T04:49:28;13.00;28.90
4054;DHT22;2042;47.956;9.222;2022-07-01T04:51:55;12.90;28.50
4054;DHT22;2042;47.956;9.222;2022-07-01T04:54:21;12.90;28.40
4054;DHT22;2042;47.956;9.222;2022-07-01T04:56:47;12.80;29.10
4054;DHT22;2042;47.956;9.222;2022-07-01T04:59:13;12.80;29.40
4054;DHT22;2042;47.956;9.222;2022-07-01T05:01:41;12.80;28.30
4054;DHT22;2042;47.956;9.222;2022-07-01T05:04:06;12.80;28.00
4054;DHT22;2042;47.956;9.222;2022-07-01T05:06:32;12.70;28.40
4054;DHT22;2042;47.956;9.222;2022-07-01T05:08:59;12.70;28.90
4054;DHT22;2042;47.956;9.222;2022-07-01T05:11:25;12.80;29.40
4054;DHT22;2042;47.956;9.222;2022-07-01T05:13:51;12.80;29.40
4054;DHT22;2042;47.956;9.222;2022-07-01T05:16:17;12.80;29.70
4054;DHT22;2042;47.956;9.222;2022-07-01T05:18:43;12.90;29.70
4054;DHT22;2042;47.956;9.222;2022-07-01T05:21:27;12.90;30.20
4054;DHT22;2042;47.956;9.222;2022-07-01T05:24:11;12.90;28.90
4054;DHT22;2042;47.956;9.222;2022-07-01T05:26:37;12.90;28.20
4054;DHT22;2042;47.956;9.222;2022-07-01T05:29:03;12.90;28.10
4054;DHT22;2042;47.956;9.222;2022-07-01T05:31:29;12.90;28.20
4054;DHT22;2042;47.956;9.222;2022-07-01T05:33:55;12.90;27.90
4054;DHT22;2042;47.956;9.222;2022-07-01T05:36:21;12.90;28.10
4054;DHT22;2042;47.956;9.222;2022-07-01T05:38:46;12.90;27.70
4054;DHT22;2042;47.956;9.222;2022-07-01T05:41:12;12.90;28.10
4054;DHT22;2042;47.956;9.222;2022-07-01T05:43:38;12.90;27.70
4054;DHT22;2042;47.956;9.222;2022-07-01T05:46:04;12.90;28.00
4054;DHT22;2042;47.956;9.222;2022-07-01T05:48:29;12.90;27.40
4054;DHT22;2042;47.956;9.222;2022-07-01T05:53:21;13.10;28.00
4054;DHT22;2042;47.956;9.222;2022-07-01T05:55:50;13.30;27.00
4054;DHT22;2042;47.956;9.222;2022-07-01T05:58:16;13.30;27.50
4054;DHT22;2042;47.956;9.222;2022-07-01T06:00:42;13.40;27.30
4054;DHT22;2042;47.956;9.222;2022-07-01T06:03:09;13.40;27.20
4054;DHT22;2042;47.956;9.222;2022-07-01T06:05:36;13.50;26.80
4054;DHT22;2042;47.956;9.222;2022-07-01T06:08:02;13.60;26.70
4054;DHT22;2042;47.956;9.222;2022-07-01T06:10:28;13.70;26.40
4054;DHT22;2042;47.956;9.222;2022-07-01T06:12:54;13.70;26.10
4054;DHT22;2042;47.956;9.222;2022-07-01T06:15:19;13.60;24.50
4054;DHT22;2042;47.956;9.222;2022-07-01T06:17:45;13.70;24.90
4054;DHT22;2042;47.956;9.222;2022-07-01T06:20:11;13.70;24.20
4054;DHT22;2042;47.956;9.222;2022-07-01T06:22:36;13.60;22.40
4054;DHT22;2042;47.956;9.222;2022-07-01T06:25:03;13.50;22.10
4054;DHT22;2042;47.956;9.222;2022-07-01T06:27:29;13.50;22.70
4054;DHT22;2042;47.956;9.222;2022-07-01T06:29:55;13.50;22.60
4054;DHT22;2042;47.956;9.222;2022-07-01T06:32:21;13.50;22.70
4054;DHT22;2042;47.956;9.222;2022-07-01T06:34:46;13.50;23.80
4054;DHT22;2042;47.956;9.222;2022-07-01T06:37:13;13.50;23.90
4054;DHT22;2042;47.956;9.222;2022-07-01T06:39:39;13.50;23.60
4054;DHT22;2042;47.956;9.222;2022-07-01T06:42:05;13.50;24.10
4054;DHT22;2042;47.956;9.222;2022-07-01T06:44:31;13.60;24.20
4054;DHT22;2042;47.956;9.222;2022-07-01T06:46:56;13.60;24.40
4054;DHT22;2042;47.956;9.222;2022-07-01T06:49:22;13.60;24.30
4054;DHT22;2042;47.956;9.222;2022-07-01T06:51:48;13.70;24.40
4054;DHT22;2042;47.956;9.222;2022-07-01T06:54:13;13.70;24.80
4054;DHT22;2042;47.956;9.222;2022-07-01T06:56:39;13.80;25.00
4054;DHT22;2042;47.956;9.222;2022-07-01T06:59:05;13.80;24.40
4054;DHT22;2042;47.956;9.222;2022-07-01T07:01:30;13.90;24.00
4054;DHT22;2042;47.956;9.222;2022-07-01T07:03:56;13.90;23.90
4054;DHT22;2042;47.956;9.222;2022-07-01T07:06:22;14.00;23.10
4054;DHT22;2042;47.956;9.222;2022-07-01T07:08:48;14.00;21.20
4054;DHT22;2042;47.956;9.222;2022-07-01T07:11:13;13.90;20.40
4054;DHT22;2042;47.956;9.222;2022-07-01T07:13:40;13.90;19.30
4054;DHT22;2042;47.956;9.222;2022-07-01T07:16:06;13.80;19.20
4054;DHT22;2042;47.956;9.222;2022-07-01T07:18:32;13.80;19.20
4054;DHT22;2042;47.956;9.222;2022-07-01T07:20:57;13.80;19.40
4054;DHT22;2042;47.956;9.222;2022-07-01T07:23:23;13.80;20.20
4054;DHT22;2042;47.956;9.222;2022-07-01T07:25:49;13.80;20.80
4054;DHT22;2042;47.956;9.222;2022-07-01T07:28:14;13.90;21.80
4054;DHT22;2042;47.956;9.222;2022-07-01T07:30:40;14.00;22.60
4054;DHT22;2042;47.956;9.222;2022-07-01T07:33:06;14.10;22.90
4054;DHT22;2042;47.956;9.222;2022-07-01T07:35:32;14.30;23.60
4054;DHT22;2042;47.956;9.222;2022-07-01T07:37:58;14.50;23.90
4054;DHT22;2042;47.956;9.222;2022-07-01T07:40:23;14.70;21.80
4054;DHT22;2042;47.956;9.222;2022-07-01T07:42:49;14.70;19.40
4054;DHT22;2042;47.956;9.222;2022-07-01T07:45:15;14.60;16.20
4054;DHT22;2042;47.956;9.222;2022-07-01T07:47:43;14.50;15.90
4054;DHT22;2042;47.956;9.222;2022-07-01T07:50:10;14.30;16.50
4054;DHT22;2042;47.956;9.222;2022-07-01T07:52:36;14.40;18.80
4054;DHT22;2042;47.956;9.222;2022-07-01T07:55:03;14.50;19.70
4054;DHT22;2042;47.956;9.222;2022-07-01T07:57:30;14.60;19.80
4054;DHT22;2042;47.956;9.222;2022-07-01T07:59:56;14.80;18.90
4054;DHT22;2042;47.956;9.222;2022-07-01T08:02:22;14.80;16.50
4054;DHT22;2042;47.956;9.222;2022-07-01T08:04:48;14.80;16.10
4054;DHT22;2042;47.956;9.222;2022-07-01T08:07:13;14.80;15.90
4054;DHT22;2042;47.956;9.222;2022-07-01T08:09:39;14.80;15.60
4054;DHT22;2042;47.956;9.222;2022-07-01T08:12:07;14.70;11.90
4054;DHT22;2042;47.956;9.222;2022-07-01T08:14:33;14.50;12.20
4054;DHT22;2042;47.956;9.222;2022-07-01T08:16:59;14.50;13.70
4054;DHT22;2042;47.956;9.222;2022-07-01T08:19:24;14.40;13.20
4054;DHT22;2042;47.956;9.222;2022-07-01T08:21:50;14.30;13.90
4054;DHT22;2042;47.956;9.222;2022-07-01T08:24:16;14.30;15.80
4054;DHT22;2042;47.956;9.222;2022-07-01T08:26:41;14.40;16.50
4054;DHT22;2042;47.956;9.222;2022-07-01T08:29:07;14.50;16.00
4054;DHT22;2042;47.956;9.222;2022-07-01T08:31:33;14.60;15.10
4054;DHT22;2042;47.956;9.222;2022-07-01T08:33:58;14.60;15.70
4054;DHT22;2042;47.956;9.222;2022-07-01T08:36:24;14.70;15.40
4054;DHT22;2042;47.956;9.222;2022-07-01T08:38:50;14.60;12.50
4054;DHT22;2042;47.956;9.222;2022-07-01T08:41:16;14.50;13.10
4054;DHT22;2042;47.956;9.222;2022-07-01T08:43:44;14.50;13.80
4054;DHT22;2042;47.956;9.222;2022-07-01T08:46:10;14.50;14.40
4054;DHT22;2042;47.956;9.222;2022-07-01T08:48:36;14.60;15.10
4054;DHT22;2042;47.956;9.222;2022-07-01T08:51:02;14.60;14.00
4054;DHT22;2042;47.956;9.222;2022-07-01T08:53:30;14.60;13.30
4054;DHT22;2042;47.956;9.222;2022-07-01T08:55:58;14.50;13.70
4054;DHT22;2042;47.956;9.222;2022-07-01T08:58:43;14.60;14.50
4054;DHT22;2042;47.956;9.222;2022-07-01T09:01:20;14.70;13.50
4054;DHT22;2042;47.956;9.222;2022-07-01T09:03:46;14.70;13.20
4054;DHT22;2042;47.956;9.222;2022-07-01T09:06:20;14.70;12.60
4054;DHT22;2042;47.956;9.222;2022-07-01T09:08:47;14.80;11.70
4054;DHT22;2042;47.956;9.222;2022-07-01T09:13:39;14.70;10.30
4054;DHT22;2042;47.956;9.222;2022-07-01T09:16:16;14.70;10.80
4054;DHT22;2042;47.956;9.222;2022-07-01T09:19:01;14.70;11.60
4054;DHT22;2042;47.956;9.222;2022-07-01T09:21:31;14.80;10.90
4054;DHT22;2042;47.956;9.222;2022-07-01T09:23:58;14.70;10.30
4054;DHT22;2042;47.956;9.222;2022-07-01T09:26:24;14.40;10.20
4054;DHT22;2042;47.956;9.222;2022-07-01T09:28:56;14.40;9.90
4054;DHT22;2042;47.956;9.222;2022-07-01T09:31:35;14.00;8.20
4054;DHT22;2042;47.956;9.222;2022-07-01T09:34:05;14.00;8.80
4054;DHT22;2042;47.956;9.222;2022-07-01T09:36:32;13.80;11.60
4054;DHT22;2042;47.956;9.222;2022-07-01T09:39:03;13.70;13.50
4054;DHT22;2042;47.956;9.222;2022-07-01T09:41:38;13.60;14.50
4054;DHT22;2042;47.956;9.222;2022-07-01T09:44:05;13.60;15.70
4054;DHT22;2042;47.956;9.222;2022-07-01T09:46:31;13.60;17.20
4054;DHT22;2042;47.956;9.222;2022-07-01T09:48:57;13.70;18.10
4054;DHT22;2042;47.956;9.222;2022-07-01T09:51:23;13.70;16.40
4054;DHT22;2042;47.956;9.222;2022-07-01T09:53:49;13.60;16.80
4054;DHT22;2042;47.956;9.222;2022-07-01T09:56:15;13.50;17.70
4054;DHT22;2042;47.956;9.222;2022-07-01T09:58:40;13.50;18.90
4054;DHT22;2042;47.956;9.222;2022-07-01T10:01:08;13.50;19.10
4054;DHT22;2042;47.956;9.222;2022-07-01T10:03:37;13.40;18.40
4054;DHT22;2042;47.956;9.222;2022-07-01T10:11:39;13.30;21.90
4054;DHT22;2042;47.956;9.222;2022-07-01T10:14:09;13.50;23.60
4054;DHT22;2042;47.956;9.222;2022-07-01T10:16:36;13.60;24.00
4054;DHT22;2042;47.956;9.222;2022-07-01T10:19:25;13.60;24.70
4054;DHT22;2042;47.956;9.222;2022-07-01T10:21:56;14.00;26.80
4054;DHT22;2042;47.956;9.222;2022-07-01T10:24:26;14.30;26.80
4054;DHT22;2042;47.956;9.222;2022-07-01T10:26:58;14.60;26.00
4054;DHT22;2042;47.956;9.222;2022-07-01T10:29:33;14.80;18.90
4054;DHT22;2042;47.956;9.222;2022-07-01T10:32:08;14.90;16.30
4054;DHT22;2042;47.956;9.222;2022-07-01T10:34:41;14.90;16.10
4054;DHT22;2042;47.956;9.222;2022-07-01T10:37:12;14.90;13.20
4054;DHT22;2042;47.956;9.222;2022-07-01T10:39:57;14.90;13.80
4054;DHT22;2042;47.956;9.222;2022-07-01T10:42:58;15.00;12.30
4054;DHT22;2042;47.956;9.222;2022-07-01T10:45:24;15.00;11.90
4054;DHT22;2042;47.956;9.222;2022-07-01T10:48:20;15.00;11.80
4054;DHT22;2042;47.956;9.222;2022-07-01T10:50:46;14.90;9.70
4054;DHT22;2042;47.956;9.222;2022-07-01T10:53:13;14.90;8.60
4054;DHT22;2042;47.956;9.222;2022-07-01T10:55:44;14.70;8.40
4054;DHT22;2042;47.956;9.222;2022-07-01T10:58:10;14.50;9.60
4054;DHT22;2042;47.956;9.222;2022-07-01T11:00:36;14.50;10.60
4054;DHT22;2042;47.956;9.222;2022-07-01T11:03:27;14.50;11.70
4054;DHT22;2042;47.956;9.222;2022-07-01T11:05:54;14.60;12.20
4054;DHT22;2042;47.956;9.222;2022-07-01T11:08:21;14.70;11.30
4054;DHT22;2042;47.956;9.222;2022-07-01T11:10:50;14.70;9.70
4054;DHT22;2042;47.956;9.222;2022-07-01T11:13:17;14.90;11.10
4054;DHT22;2042;47.956;9.222;2022-07-01T11:15:47;15.00;8.20
4054;DHT22;2042;47.956;9.222;2022-07-01T11:18:15;14.90;7.90
4054;DHT22;2042;47.956;9.222;2022-07-01T11:20:41;14.80;8.20
4054;DHT22;2042;47.956;9.222;2022-07-01T11:23:07;14.90;9.80
4054;DHT22;2042;47.956;9.222;2022-07-01T11:25:34;14.80;8.60
4054;DHT22;2042;47.956;9.222;2022-07-01T11:27:59;14.80;9.30
4054;DHT22;2042;47.956;9.222;2022-07-01T11:30:25;14.70;8.30
4054;DHT22;2042;47.956;9.222;2022-07-01T11:32:54;14.60;8.50
4054;DHT22;2042;47.956;9.222;2022-07-01T11:35:23;14.50;8.60
4054;DHT22;2042;47.956;9.222;2022-07-01T11:38:13;14.40;8.30
4054;DHT22;2042;47.956;9.222;2022-07-01T11:41:00;14.20;7.20
4054;DHT22;2042;47.956;9.222;2022-07-01T11:43:30;14.10;8.70
4054;DHT22;2042;47.956;9.222;2022-07-01T11:45:59;14.10;10.00
4054;DHT22;2042;47.956;9.222;2022-07-01T11:48:40;14.00;8.50
4054;DHT22;2042;47.956;9.222;2022-07-01T11:51:18;13.90;9.40
4054;DHT22;2042;47.956;9.222;2022-07-01T11:53:49;13.80;10.90
4054;DHT22;2042;47.956;9.222;2022-07-01T11:56:16;14.00;11.80
4054;DHT22;2042;47.956;9.222;2022-07-01T12:01:25;14.00;10.00
4054;DHT22;2042;47.956;9.222;2022-07-01T12:03:51;13.90;9.40
4054;DHT22;2042;47.956;9.222;2022-07-01T12:06:18;14.00;12.00
4054;DHT22;2042;47.956;9.222;2022-07-01T12:11:12;14.40;14.80
4054;DHT22;2042;47.956;9.222;2022-07-01T12:13:38;15.10;14.10
4054;DHT22;2042;47.956;9.222;2022-07-01T12:16:08;15.60;11.80
4054;DHT22;2042;47.956;9.222;2022-07-01T12:18:34;15.80;6.30
4054;DHT22;2042;47.956;9.222;2022-07-01T12:21:00;16.00;3.20
4054;DHT22;2042;47.956;9.222;2022-07-01T12:23:26;16.20;1.00
4054;DHT22;2042;47.956;9.222;2022-07-01T12:25:52;16.30;1.00
4054;DHT22;2042;47.956;9.222;2022-07-01T12:28:36;16.50;1.00
4054;DHT22;2042;47.956;9.222;2022-07-01T12:31:07;17.10;1.00
4054;DHT22;2042;47.956;9.222;2022-07-01T12:33:35;17.50;1.00
4054;DHT22;2042;47.956;9.222;2022-07-01T12:36:02;17.60;1.00
4054;DHT22;2042;47.956;9.222;2022-07-01T12:38:28;18.30;1.00
4054;DHT22;2042;47.956;9.222;2022-07-01T12:40:54;18.50;1.00
4054;DHT22;2042;47.956;9.222;2022-07-01T12:45:50;18.60;1.00
4054;DHT22;2042;47.956;9.222;2022-07-01T12:48:15;18.50;1.00
4054;DHT22;2042;47.956;9.222;2022-07-01T12:50:41;18.20;1.00
4054;DHT22;2042;47.956;9.222;2022-07-01T12:53:09;17.90;1.00
4054;DHT22;2042;47.956;9.222;2022-07-01T13:00:31;18.00;1.00
4054;DHT22;2042;47.956;9.222;2022-07-01T13:02:59;18.20;1.00
4054;DHT22;2042;47.956;9.222;2022-07-01T13:05:25;18.50;1.00
4054;DHT22;2042;47.956;9.222;2022-07-01T13:07:51;18.60;1.00
4054;DHT22;2042;47.956;9.222;2022-07-01T13:10:17;18.80;1.00
4054;DHT22;2042;47.956;9.222;2022-07-01T13:12:44;18.90;1.00
4054;DHT22;2042;47.956;9.222;2022-07-01T13:15:11;18.80;1.00
4054;DHT22;2042;47.956;9.222;2022-07-01T13:17:37;18.90;1.00
4054;DHT22;2042;47.956;9.222;2022-07-01T13:20:04;19.40;1.00
4054;DHT22;2042;47.956;9.222;2022-07-01T13:22:30;19.90;1.00
4054;DHT22;2042;47.956;9.222;2022-07-01T13:24:56;20.30;1.00
4054;DHT22;2042;47.956;9.222;2022-07-01T13:27:22;20.40;1.00
4054;DHT22;2042;47.956;9.222;2022-07-01T13:32:15;20.10;1.00
4054;DHT22;2042;47.956;9.222;2022-07-01T13:34:41;19.80;1.00
4054;DHT22;2042;47.956;9.222;2022-07-01T13:37:06;19.60;1.00
4054;DHT22;2042;47.956;9.222;2022-07-01T13:39:32;19.50;1.00
4054;DHT22;2042;47.956;9.222;2022-07-01T13:44:24;20.10;1.00
4054;DHT22;2042;47.956;9.222;2022-07-01T13:46:50;21.00;1.00
4054;DHT22;2042;47.956;9.222;2022-07-01T13:49:16;22.70;1.00
4054;DHT22;2042;47.956;9.222;2022-07-01T13:51:42;24.50;1.00
4054;DHT22;2042;47.956;9.222;2022-07-01T13:54:07;25.30;1.00
4054;DHT22;2042;47.956;9.222;2022-07-01T13:56:33;24.80;1.00
4054;DHT22;2042;47.956;9.222;2022-07-01T13:58:59;24.20;1.00
4054;DHT22;2042;47.956;9.222;2022-07-01T14:01:25;23.60;1.00
4054;DHT22;2042;47.956;9.222;2022-07-01T14:03:52;22.90;1.00
4054;DHT22;2042;47.956;9.222;2022-07-01T14:06:18;22.40;1.00
4054;DHT22;2042;47.956;9.222;2022-07-01T14:08:45;21.90;1.00
4054;DHT22;2042;47.956;9.222;2022-07-01T14:11:11;21.80;1.00
4054;DHT22;2042;47.956;9.222;2022-07-01T14:13:37;21.60;1.00
4054;DHT22;2042;47.956;9.222;2022-07-01T14:16:03;21.60;1.00
4054;DHT22;2042;47.956;9.222;2022-07-01T14:18:32;21.90;1.00
4054;DHT22;2042;47.956;9.222;2022-07-01T14:20:58;22.50;1.00
4054;DHT22;2042;47.956;9.222;2022-07-01T14:23:24;23.20;1.00
4054;DHT22;2042;47.956;9.222;2022-07-01T14:25:50;23.90;1.00
4054;DHT22;2042;47.956;9.222;2022-07-01T14:28:15;24.30;1.00
4054;DHT22;2042;47.956;9.222;2022-07-01T14:30:41;24.50;1.00
4054;DHT22;2042;47.956;9.222;2022-07-01T14:33:07;24.50;1.00
4054;DHT22;2042;47.956;9.222;2022-07-01T14:35:33;24.00;1.00
4054;DHT22;2042;47.956;9.222;2022-07-01T14:37:58;24.20;1.00
4054;DHT22;2042;47.956;9.222;2022-07-01T14:40:25;24.10;1.00
4054;DHT22;2042;47.956;9.222;2022-07-01T14:42:50;23.80;1.00
4054;DHT22;2042;47.956;9.222;2022-07-01T14:45:16;23.90;1.00
4054;DHT22;2042;47.956;9.222;2022-07-01T14:47:43;23.90;1.00
4054;DHT22;2042;47.956;9.222;2022-07-01T14:50:09;23.60;1.00
4054;DHT22;2042;47.956;9.222;2022-07-01T14:55:02;22.40;1.00
4054;DHT22;2042;47.956;9.222;2022-07-01T14:57:28;21.80;1.00
4054;DHT22;2042;47.956;9.222;2022-07-01T14:59:54;21.10;1.00
4054;DHT22;2042;47.956;9.222;2022-07-01T15:02:20;20.60;1.00
4054;DHT22;2042;47.956;9.222;2022-07-01T15:04:47;20.40;1.00
4054;DHT22;2042;47.956;9.222;2022-07-01T15:07:13;20.20;1.00
4054;DHT22;2042;47.956;9.222;2022-07-01T15:09:39;20.30;1.00
4054;DHT22;2042;47.956;9.222;2022-07-01T15:12:05;20.50;1.00
4054;DHT22;2042;47.956;9.222;2022-07-01T15:14:31;20.60;1.00
4054;DHT22;2042;47.956;9.222;2022-07-01T15:16:57;20.70;1.00
4054;DHT22;2042;47.956;9.222;2022-07-01T15:19:26;20.80;1.00
4054;DHT22;2042;47.956;9.222;2022-07-01T15:21:56;21.50;1.00
4054;DHT22;2042;47.956;9.222;2022-07-01T15:24:22;22.60;1.00
4054;DHT22;2042;47.956;9.222;2022-07-01T15:26:48;23.70;1.00
4054;DHT22;2042;47.956;9.222;2022-07-01T15:29:14;24.30;1.00
4054;DHT22;2042;47.956;9.222;2022-07-01T15:31:40;24.90;1.00
4054;DHT22;2042;47.956;9.222;2022-07-01T15:34:06;25.40;1.00
4054;DHT22;2042;47.956;9.222;2022-07-01T15:36:32;25.60;1.00
4054;DHT22;2042;47.956;9.222;2022-07-01T15:38:58;24.60;1.00
4054;DHT22;2042;47.956;9.222;2022-07-01T15:41:26;23.40;1.00
4054;DHT22;2042;47.956;9.222;2022-07-01T15:43:53;23.10;1.00
4054;DHT22;2042;47.956;9.222;2022-07-01T15:46:19;22.60;1.00
4054;DHT22;2042;47.956;9.222;2022-07-01T15:48:45;22.80;1.00
4054;DHT22;2042;47.956;9.222;2022-07-01T15:51:12;22.60;1.00
4054;DHT22;2042;47.956;9.222;2022-07-01T15:53:37;22.00;1.00
4054;DHT22;2042;47.956;9.222;2022-07-01T15:56:03;22.60;1.00
4054;DHT22;2042;47.956;9.222;2022-07-01T15:58:29;22.70;1.00
4054;DHT22;2042;47.956;9.222;2022-07-01T16:00:57;23.70;1.00
4054;DHT22;2042;47.956;9.222;2022-07-01T16:03:23;24.50;1.00
4054;DHT22;2042;47.956;9.222;2022-07-01T16:05:51;25.20;1.00
4054;DHT22;2042;47.956;9.222;2022-07-01T16:10:59;25.20;1.00
4054;DHT22;2042;47.956;9.222;2022-07-01T16:13:28;25.70;1.00
4054;DHT22;2042;47.956;9.222;2022-07-01T16:15:56;25.80;1.00
4054;DHT22;2042;47.956;9.222;2022-07-01T16:18:28;26.20;1.00
4054;DHT22;2042;47.956;9.222;2022-07-01T16:20:57;26.40;1.00
4054;DHT22;2042;47.956;9.222;2022-07-01T16:23:25;26.40;1.00
4054;DHT22;2042;47.956;9.222;2022-07-01T16:25:53;26.30;1.00
4054;DHT22;2042;47.956;9.222;2022-07-01T16:28:19;26.00;1.00
4054;DHT22;2042;47.956;9.222;2022-07-01T16:30:45;25.70;1.00
4054;DHT22;2042;47.956;9.222;2022-07-01T16:33:11;24.80;1.00
4054;DHT22;2042;47.956;9.222;2022-07-01T16:35:44;23.80;1.00
4054;DHT22;2042;47.956;9.222;2022-07-01T16:38:12;23.70;1.00
4054;DHT22;2042;47.956;9.222;2022-07-01T16:40:43;24.10;1.00